1958 NOT_NAMED (1958062S16118)


IBTrACS version v04r00. Visit IBTrACS website for data access.
Please direct all questions to the IBTrACS Q and A forum

Storm track - Intensity - Wind Radii - Intensity Data - Source Data - All data

Summary Information

Storm ID 1958062S16118
Start Mar 2 23Z
Landfall Mar 6 06Z
End Mar 6 23Z
ATCF IDs ,SH201958
Track status Best track data.

Storm track plot

Map of storm track

Intensity plots

No Intensity information for this storm


Radial wind information

No radial wind information for this storm


Position and Intensity Table

BASIN ISO_TIME_________ NATURE LAT LON
degrees north degrees east
SI 1958-03-02 23:00:00 NR -16.00 117.80
SI 1958-03-03 00:00:00 TS -16.09 117.71
SI 03:00:00 TS -16.34 117.46
SI 06:00:00 TS -16.59 117.20
SI 09:00:00 TS -16.84 116.92
SI 11:00:00 TS -17.01 116.71
SI 12:00:00 TS -17.09 116.60
SI 15:00:00 TS -17.35 116.21
SI 18:00:00 TS -17.59 115.82
SI 21:00:00 TS -17.81 115.48
SI 23:00:00 TS -17.93 115.29
SI 1958-03-04 00:00:00 TS -17.98 115.20
SI 03:00:00 TS -18.11 114.99
SI 06:00:00 TS -18.20 114.80
SI 09:00:00 TS -18.30 114.61
SI 11:00:00 TS -18.37 114.48
SI 12:00:00 TS -18.41 114.41
SI 15:00:00 TS -18.55 114.21
SI 18:00:00 TS -18.71 114.00
SI 21:00:00 TS -18.89 113.80
SI 23:00:00 TS -19.02 113.67
SI 1958-03-05 00:00:00 TS -19.09 113.61
SI 03:00:00 TS -19.28 113.49
SI 06:00:00 TS -19.50 113.39
SI 09:00:00 TS -19.74 113.28
SI 11:00:00 TS -19.91 113.22
SI 12:00:00 TS -19.99 113.18
SI 15:00:00 TS -20.23 113.05
SI 18:00:00 TS -20.48 112.98
SI 21:00:00 TS -20.75 113.01
SI 23:00:00 TS -20.98 113.11
SI 1958-03-06 00:00:00 TS -21.12 113.20
SI 03:00:00 TS -21.62 113.57
SI 06:00:00 TS -22.19 114.09
SI 09:00:00 TS -22.76 114.67
SI 11:00:00 TS -23.12 115.09
SI 12:00:00 TS -23.29 115.31
SI 15:00:00 TS -23.76 115.95
SI 18:00:00 TS -24.20 116.60
SI 21:00:00 NR -24.63 117.26
SI 23:00:00 NR -24.90 117.70

Source Information

Agency Information
USA bsh201958.txt
TOKYO
CMA
HKO
NEWDELHI
REUNION
BOM
NADI
WELLINGTON
DS824 s_hem.dat:735:20S
TD9636 cons_worldwide_trop_cyclone_18710101-19891231-006:Line=5154
TD9635
NEUMANN
MLC

All available IBTrACS Data

SEASON BASIN SUBBASIN ISO_TIME_________ NATURE LAT LON DIST2LAND LANDFALL IFLAG USA AGENCY USA ATCF_ID USA LAT USA LON USA SSHS DS824 LAT DS824 LON DS824 STAGE TD9636 LAT TD9636 LON TD9636 STAGE STORM SPEED STORM DIR
Year degrees north degrees east km km degrees north degrees east 1 degrees north degrees east degrees north degrees east kts degrees
1958 SI WA 1958-03-02 23:00:00 NR -16.00 117.80 478 471 __________O___ -1 -16.00 117.80 1 8 223
1958 SI WA 1958-03-03 00:00:00 TS -16.09 117.71 471 457 O________OP___ jtwc_sh SH201958 -16.10 117.70 -1 -16.10 117.70 TC -16.08 117.72 1 7 224
1958 SI WA 03:00:00 TS -16.34 117.46 457 435 P________PP___ SH201958 -16.35 117.46 -1 -16.35 117.46 TC -16.33 117.47 1 7 224
1958 SI WA 06:00:00 TS -16.59 117.20 435 419 O________OP___ jtwc_sh SH201958 -16.60 117.20 -1 -16.60 117.20 TC -16.58 117.20 1 7 226
1958 SI WA 09:00:00 TS -16.84 116.92 422 402 P________PP___ SH201958 -16.85 116.92 -1 -16.85 116.92 TC -16.83 116.91 1 8 229
1958 SI WA 11:00:00 TS -17.01 116.71 402 391 P________PO___ SH201958 -17.02 116.71 -1 -17.02 116.71 TC -17.00 116.70 1 8 231
1958 SI WA 12:00:00 TS -17.09 116.60 391 370 O________OP___ jtwc_sh SH201958 -17.10 116.60 -1 -17.10 116.60 TC -17.08 116.59 1 9 235
1958 SI WA 15:00:00 TS -17.35 116.21 372 345 P________PP___ SH201958 -17.36 116.20 -1 -17.36 116.20 TC -17.33 116.22 1 9 236
1958 SI WA 18:00:00 TS -17.59 115.82 348 333 O________OP___ jtwc_sh SH201958 -17.60 115.80 -1 -17.60 115.80 TC -17.56 115.86 1 8 236
1958 SI WA 21:00:00 TS -17.81 115.48 337 331 P________PP___ SH201958 -17.82 115.47 -1 -17.82 115.47 TC -17.78 115.51 1 7 236
1958 SI WA 23:00:00 TS -17.93 115.29 335 325 P________PO___ SH201958 -17.95 115.28 -1 -17.95 115.28 TC -17.90 115.30 1 6 236
1958 SI WA 1958-03-04 00:00:00 TS -17.98 115.20 330 326 O________OP___ jtwc_sh SH201958 -18.00 115.20 -1 -18.00 115.20 TC -17.95 115.21 1 5 239
1958 SI WA 03:00:00 TS -18.11 114.99 331 328 P________PP___ SH201958 -18.11 114.98 -1 -18.11 114.98 TC -18.09 114.99 1 4 241
1958 SI WA 06:00:00 TS -18.20 114.80 334 330 O________OP___ jtwc_sh SH201958 -18.20 114.80 -1 -18.20 114.80 TC -18.21 114.79 1 4 242
1958 SI WA 09:00:00 TS -18.30 114.61 335 331 P________PP___ SH201958 -18.29 114.60 -1 -18.29 114.60 TC -18.32 114.62 1 4 241
1958 SI WA 11:00:00 TS -18.37 114.48 331 331 P________PO___ SH201958 -18.36 114.47 -1 -18.36 114.47 TC -18.40 114.50 1 4 239
1958 SI WA 12:00:00 TS -18.41 114.41 337 334 O________OP___ jtwc_sh SH201958 -18.40 114.40 -1 -18.40 114.40 TC -18.44 114.43 1 5 236
1958 SI WA 15:00:00 TS -18.55 114.21 340 327 P________PP___ SH201958 -18.53 114.20 -1 -18.53 114.20 TC -18.58 114.22 1 5 233
1958 SI WA 18:00:00 TS -18.71 114.00 333 329 O________OP___ jtwc_sh SH201958 -18.70 114.00 -1 -18.70 114.00 TC -18.72 114.01 1 5 229
1958 SI WA 21:00:00 TS -18.89 113.80 329 325 P________PP___ SH201958 -18.89 113.79 -1 -18.89 113.79 TC -18.88 113.82 1 5 225
1958 SI WA 23:00:00 TS -19.02 113.67 325 315 P________PO___ SH201958 -19.03 113.66 -1 -19.03 113.66 TC -19.00 113.70 1 5 221
1958 SI WA 1958-03-05 00:00:00 TS -19.09 113.61 315 295 O________OP___ jtwc_sh SH201958 -19.10 113.60 -1 -19.10 113.60 TC -19.06 113.64 1 5 213
1958 SI WA 03:00:00 TS -19.28 113.49 295 275 P________PP___ SH201958 -19.29 113.48 -1 -19.29 113.48 TC -19.27 113.49 1 5 208
1958 SI WA 06:00:00 TS -19.50 113.39 275 256 O________OP___ jtwc_sh SH201958 -19.50 113.40 -1 -19.50 113.40 TC -19.49 113.36 1 5 202
1958 SI WA 09:00:00 TS -19.74 113.28 256 238 P________PP___ SH201958 -19.74 113.30 -1 -19.74 113.30 TC -19.73 113.25 1 5 200
1958 SI WA 11:00:00 TS -19.91 113.22 238 228 P________PO___ SH201958 -19.91 113.23 -1 -19.91 113.23 TC -19.90 113.20 1 5 202
1958 SI WA 12:00:00 TS -19.99 113.18 228 211 O________OP___ jtwc_sh SH201958 -20.00 113.20 -1 -20.00 113.20 TC -19.97 113.15 1 5 206
1958 SI WA 15:00:00 TS -20.23 113.05 211 187 P________PP___ SH201958 -20.24 113.07 -1 -20.24 113.07 TC -20.20 113.02 1 5 201
1958 SI WA 18:00:00 TS -20.48 112.98 187 169 O________OP___ jtwc_sh SH201958 -20.50 113.00 -1 -20.50 113.00 TC -20.45 112.95 1 5 185
1958 SI WA 21:00:00 TS -20.75 113.01 160 137 P________PP___ SH201958 -20.75 113.02 -1 -20.75 113.02 TC -20.75 112.99 1 6 167
1958 SI WA 23:00:00 TS -20.98 113.11 137 121 P________PO___ SH201958 -20.97 113.12 -1 -20.97 113.12 TC -21.00 113.10 2 8 154
1958 SI WA 1958-03-06 00:00:00 TS -21.12 113.20 121 61 O________OP___ jtwc_sh SH201958 -21.10 113.20 -1 -21.10 113.20 TC -21.15 113.19 2 12 146
1958 SI WA 03:00:00 TS -21.62 113.57 53 0 P________PP___ SH201958 -21.61 113.57 -1 -21.61 113.57 TC -21.64 113.57 2 14 142
1958 SI WA 06:00:00 TS -22.19 114.09 0 0 O________OP___ jtwc_sh SH201958 -22.20 114.10 -1 -22.20 114.10 TC -22.18 114.08 2 15 138
1958 SI WA 09:00:00 TS -22.76 114.67 0 0 P________PP___ SH201958 -22.76 114.67 -1 -22.76 114.67 TC -22.74 114.68 2 16 135
1958 SI WA 11:00:00 TS -23.12 115.09 0 0 P________PO___ SH201958 -23.13 115.09 -1 -23.13 115.09 TC -23.10 115.10 1 16 132
1958 SI WA 12:00:00 TS -23.29 115.31 0 0 O________OP___ jtwc_sh SH201958 -23.30 115.30 -1 -23.30 115.30 TC -23.27 115.31 1 15 129
1958 SI WA 15:00:00 TS -23.76 115.95 0 0 P________PP___ SH201958 -23.77 115.95 -1 -23.77 115.95 TC -23.76 115.96 1 15 128
1958 SI WA 18:00:00 TS -24.20 116.60 0 0 O________OP___ jtwc_sh SH201958 -24.20 116.60 -1 -24.20 116.60 TC -24.20 116.61 1 15 126
1958 SI WA 21:00:00 NR -24.63 117.26 0 0 __________P___ SH201958 -1 TC -24.63 117.26 1 15 125
1958 SI WA 23:00:00 NR -24.90 117.70 0 __________O___ SH201958 -1 TC -24.90 117.70 1 15 125